Time;durP1;ratioP1;P1;durP2;ratioP2;P2;SDS_P1;SDS_P2;PMS_P1;PMS_P2;Temp;Humidity;BMP_temperature;BMP_pressure;BME280_temperature;BME280_humidity;BME280_pressure;Samples;Min_cycle;Max_cycle;Signal;HPM_P1;HPM_P2
2023/10/01 00:01:08;;;;;;;25.37;10.93;;;;;;;15.55;53.19;100649.86;126952;1086;101893;-77
2023/10/01 00:03:54;;;;;;;25.37;10.97;;;;;;;15.46;53.33;100656.77;126952;1086;104197;-76
2023/10/01 00:06:24;;;;;;;25.60;11.47;;;;;;;15.40;53.81;100650.48;126957;1086;102303;-76
2023/10/01 00:08:53;;;;;;;26.37;11.17;;;;;;;15.34;54.55;100653.90;126875;1085;102328;-76
2023/10/01 00:11:23;;;;;;;24.80;11.27;;;;;;;15.26;54.77;100648.47;126992;1086;104172;-76
2023/10/01 00:13:51;;;;;;;24.23;11.17;;;;;;;15.19;55.00;100645.67;126957;1086;104162;-75
2023/10/01 00:16:20;;;;;;;23.93;11.07;;;;;;;15.13;54.41;100646.47;126947;1086;102079;-75
2023/10/01 00:18:49;;;;;;;24.40;11.33;;;;;;;15.07;54.40;100638.42;126804;1086;101998;-75
2023/10/01 00:21:17;;;;;;;28.57;11.13;;;;;;;15.01;55.43;100631.25;126905;1086;104177;-75
2023/10/01 00:23:46;;;;;;;23.50;11.47;;;;;;;14.95;55.01;100635.53;126983;1086;101863;-76
2023/10/01 00:26:15;;;;;;;25.87;11.70;;;;;;;14.89;55.59;100641.57;126919;1086;104244;-76
2023/10/01 00:28:45;;;;;;;22.83;11.97;;;;;;;14.80;55.25;100630.81;126923;1085;102160;-76
2023/10/01 00:31:14;;;;;;;24.07;12.03;;;;;;;14.72;56.21;100633.30;126981;1086;104156;-75
2023/10/01 00:33:42;;;;;;;27.53;11.73;;;;;;;14.68;55.81;100626.19;126877;1086;101890;-75
2023/10/01 00:36:11;;;;;;;24.33;12.13;;;;;;;14.64;56.55;100635.77;126994;1086;102076;-76
2023/10/01 00:38:40;;;;;;;24.43;12.10;;;;;;;14.59;56.13;100634.77;126952;1086;102170;-75
2023/10/01 00:41:09;;;;;;;25.33;12.00;;;;;;;14.54;57.17;100639.06;126983;1086;104306;-75
2023/10/01 00:43:37;;;;;;;30.03;12.60;;;;;;;14.49;57.06;100640.69;126755;1086;104186;-75
2023/10/01 00:46:06;;;;;;;27.07;12.10;;;;;;;14.43;56.73;100638.83;126808;1086;104276;-75
2023/10/01 00:48:36;;;;;;;26.37;11.77;;;;;;;14.39;57.01;100642.23;126737;1086;104228;-75
2023/10/01 00:51:05;;;;;;;24.87;11.00;;;;;;;14.33;56.73;100642.98;126806;1086;101985;-75
2023/10/01 00:53:35;;;;;;;22.23;11.20;;;;;;;14.31;56.83;100636.79;126707;1086;104025;-75
2023/10/01 00:56:03;;;;;;;26.83;11.93;;;;;;;14.32;57.23;100635.94;126789;1086;104178;-74
2023/10/01 00:58:33;;;;;;;24.63;11.60;;;;;;;14.33;56.59;100634.19;126711;1086;104274;-76
2023/10/01 01:01:04;;;;;;;22.77;11.83;;;;;;;14.33;56.37;100634.19;126961;1086;103264;-75
2023/10/01 01:03:34;;;;;;;22.30;10.87;;;;;;;14.33;56.98;100631.55;126782;1086;102246;-75
2023/10/01 01:06:13;;;;;;;21.90;11.47;;;;;;;14.34;56.87;100626.30;126722;1086;104181;-76
2023/10/01 01:08:54;;;;;;;23.87;10.97;;;;;;;14.35;56.94;100625.45;126427;1086;104178;-75
2023/10/01 01:11:22;;;;;;;21.33;10.47;;;;;;;14.33;57.51;100629.78;126799;1086;104159;-75
2023/10/01 01:13:51;;;;;;;22.30;10.35;;;;;;;14.29;57.23;100627.05;126772;1086;104258;-75
2023/10/01 01:16:19;;;;;;;22.67;10.57;;;;;;;14.26;56.43;100622.61;126937;1086;102063;-76
2023/10/01 01:18:51;;;;;;;23.43;11.53;;;;;;;14.23;56.73;100627.81;126968;1086;104364;-75
2023/10/01 01:21:20;;;;;;;22.33;11.27;;;;;;;14.19;57.35;100616.31;126929;1086;104120;-76
2023/10/01 01:23:50;;;;;;;24.90;11.50;;;;;;;14.16;56.91;100620.59;126951;1086;104236;-75
2023/10/01 01:26:21;;;;;;;22.73;11.07;;;;;;;14.10;57.75;100623.09;126987;1086;102067;-76
2023/10/01 01:28:49;;;;;;;23.47;10.80;;;;;;;14.03;57.74;100622.95;126958;1086;104330;-76
2023/10/01 01:31:18;;;;;;;21.13;10.50;;;;;;;13.99;58.20;100615.84;126890;1086;104178;-76
2023/10/01 01:33:53;;;;;;;21.80;10.17;;;;;;;13.95;58.01;100621.89;126945;1085;104225;-75
2023/10/01 01:36:22;;;;;;;24.87;10.27;;;;;;;13.93;57.43;100626.25;126935;1086;104296;-77
2023/10/01 01:39:12;;;;;;;20.30;10.60;;;;;;;13.90;57.71;100631.45;126984;1085;102151;-76
2023/10/01 01:41:42;;;;;;;21.80;10.53;;;;;;;13.85;58.83;100625.14;126891;1086;101840;-76
2023/10/01 01:44:13;;;;;;;22.93;10.70;;;;;;;13.80;58.41;100627.67;126881;1085;104034;-76
2023/10/01 01:46:47;;;;;;;21.97;10.77;;;;;;;13.77;58.83;100627.59;126892;1086;104236;-75
2023/10/01 01:49:18;;;;;;;22.90;10.63;;;;;;;13.74;58.77;100629.27;126888;1086;104622;-76
2023/10/01 01:51:57;;;;;;;24.07;11.37;;;;;;;13.70;59.12;100628.31;127884;1085;104126;-75
2023/10/01 01:54:28;;;;;;;22.10;10.33;;;;;;;13.69;59.39;100634.44;126942;1086;102107;-75
2023/10/01 01:56:56;;;;;;;22.80;10.47;;;;;;;13.72;59.30;100628.36;126868;1086;101934;-75
2023/10/01 01:59:28;;;;;;;22.87;10.60;;;;;;;13.76;58.79;100623.20;126989;1086;101915;-76
2023/10/01 02:01:57;;;;;;;23.00;10.30;;;;;;;13.78;58.90;100629.39;126874;1086;104149;-75
2023/10/01 02:04:26;;;;;;;24.37;10.67;;;;;;;13.76;59.95;100633.75;126924;1086;104184;-75
2023/10/01 02:06:56;;;;;;;23.73;10.57;;;;;;;13.72;59.51;100629.23;126996;1086;104199;-75
2023/10/01 02:09:24;;;;;;;24.20;11.10;;;;;;;13.67;59.22;100636.16;126850;1085;104027;-76
2023/10/01 02:11:53;;;;;;;23.00;10.20;;;;;;;13.61;59.84;100634.23;126956;1086;104226;-76
2023/10/01 02:14:31;;;;;;;25.90;10.87;;;;;;;13.56;60.15;100635.88;126868;1086;102080;-76
2023/10/01 02:17:13;;;;;;;24.73;10.80;;;;;;;13.50;60.54;100638.36;126892;1086;102160;-76
2023/10/01 02:19:46;;;;;;;20.80;11.10;;;;;;;13.47;60.34;100633.88;126857;1086;104180;-76
2023/10/01 02:22:16;;;;;;;22.42;10.95;;;;;;;13.42;60.48;100638.16;126812;1086;104146;-76
2023/10/01 02:24:45;;;;;;;27.73;11.30;;;;;;;13.37;61.18;100636.23;126874;1086;101797;-75
2023/10/01 02:27:16;;;;;;;25.53;11.27;;;;;;;13.31;60.42;100636.95;126893;1086;104210;-76
2023/10/01 02:32:28;;;;;;;20.13;11.17;;;;;;;13.24;60.52;100638.50;126874;1085;104211;-76
2023/10/01 02:34:57;;;;;;;23.47;11.07;;;;;;;13.23;61.30;100638.46;127831;1085;104372;-76
2023/10/01 02:37:29;;;;;;;21.40;10.77;;;;;;;13.17;61.98;100631.30;126847;1086;102013;-76
2023/10/01 02:39:59;;;;;;;22.90;10.10;;;;;;;13.12;62.04;100636.45;126829;1086;104152;-76
2023/10/01 02:42:30;;;;;;;22.40;10.87;;;;;;;13.08;61.52;100633.69;126836;1086;101787;-76
2023/10/01 02:44:59;;;;;;;24.73;11.60;;;;;;;13.06;61.92;100636.28;126826;1086;101986;-76
2023/10/01 02:47:31;;;;;;;22.13;10.13;;;;;;;13.05;61.34;100631.84;126790;1086;101896;-75
2023/10/01 02:50:14;;;;;;;23.13;10.67;;;;;;;13.05;61.63;100630.97;126857;1086;104181;-76
2023/10/01 02:52:44;;;;;;;21.68;10.78;;;;;;;13.06;61.63;100627.49;126905;1085;101837;-75
2023/10/01 02:55:17;;;;;;;21.27;10.37;;;;;;;13.06;61.60;100633.64;126875;1086;104231;-75
2023/10/01 02:57:50;;;;;;;21.45;10.00;;;;;;;13.07;61.11;100631.89;126829;1086;104315;-76
2023/10/01 03:00:30;;;;;;;21.90;10.17;;;;;;;13.09;61.28;100632.84;126762;1086;102211;-75
2023/10/01 03:03:00;;;;;;;27.07;10.30;;;;;;;13.09;61.02;100632.84;127965;1085;104146;-75
2023/10/01 03:05:29;;;;;;;22.30;10.00;;;;;;;13.11;60.82;100623.23;126851;1086;104155;-76
2023/10/01 03:07:58;;;;;;;25.93;10.17;;;;;;;13.12;61.30;100632.93;126850;1086;102098;-75
2023/10/01 03:10:31;;;;;;;18.30;9.57;;;;;;;13.12;60.89;100630.30;127061;1086;101864;-76
2023/10/01 03:13:14;;;;;;;21.50;10.10;;;;;;;13.11;61.26;100628.50;126897;1086;102034;-75
2023/10/01 03:15:44;;;;;;;19.40;10.17;;;;;;;13.11;61.33;100631.14;126795;1086;104021;-75
2023/10/01 03:21:07;;;;;;;22.33;9.50;;;;;;;13.06;61.67;100628.38;126959;1086;104229;-76
2023/10/01 03:23:36;;;;;;;25.10;11.17;;;;;;;13.05;61.63;100630.97;126837;1086;102070;-75
2023/10/01 03:26:08;;;;;;;20.10;9.63;;;;;;;13.05;61.45;100637.12;126700;1085;104238;-75
2023/10/01 03:31:20;;;;;;;;;;;;;;;13.03;61.91;100636.19;126952;1086;104235;-75
2023/10/01 03:33:53;;;;;;;21.80;8.97;;;;;;;13.01;61.50;100637.91;126818;1086;104218;-76
2023/10/01 03:36:25;;;;;;;17.92;9.43;;;;;;;13.00;61.25;100640.50;126821;1086;101926;-75
2023/10/01 03:38:57;;;;;;;21.63;9.87;;;;;;;13.01;61.13;100635.27;126906;1086;104351;-75
2023/10/01 03:41:27;;;;;;;20.40;9.90;;;;;;;13.03;61.31;100637.95;127019;1086;101768;-76
2023/10/01 03:44:08;;;;;;;18.73;8.83;;;;;;;13.05;61.32;100645.02;126932;1086;104314;-76
2023/10/01 03:46:45;;;;;;;19.05;8.90;;;;;;;13.09;61.37;100643.39;126890;1086;104180;-75
2023/10/01 03:52:01;;;;;;;18.83;9.20;;;;;;;13.15;61.54;100637.37;126908;1086;104225;-75
2023/10/01 03:54:52;;;;;;;20.30;9.40;;;;;;;13.16;61.68;100636.53;127031;1086;101964;-75
2023/10/01 03:57:22;;;;;;;20.30;9.47;;;;;;;13.18;60.91;100635.70;126886;1085;101845;-75
2023/10/01 03:59:52;;;;;;;23.93;10.27;;;;;;;13.20;61.30;100636.66;126995;1086;102302;-75
2023/10/01 04:02:46;;;;;;;19.93;8.83;;;;;;;13.21;61.43;100632.27;126958;1086;104197;-75
2023/10/01 04:05:31;;;;;;;23.80;9.85;;;;;;;13.20;61.49;100634.02;126803;1086;102070;-75
2023/10/01 04:08:06;;;;;;;23.30;10.17;;;;;;;13.21;61.83;100640.17;126919;1085;104263;-75
2023/10/01 04:10:38;;;;;;;20.57;10.40;;;;;;;13.20;62.00;100641.93;126932;1085;101868;-75
2023/10/01 04:13:13;;;;;;;20.73;10.30;;;;;;;13.21;61.55;100641.05;126916;1086;101999;-75
2023/10/01 04:15:46;;;;;;;18.07;9.23;;;;;;;13.22;61.73;100640.22;127021;1086;104158;-75
2023/10/01 04:18:21;;;;;;;19.80;9.20;;;;;;;13.24;61.55;100641.14;126770;1086;104272;-75
2023/10/01 04:23:43;;;;;;;21.90;9.40;;;;;;;13.28;61.17;100642.14;126764;1086;104168;-75
2023/10/01 04:26:13;;;;;;;22.42;9.93;;;;;;;13.29;61.31;100650.09;126908;1086;104168;-76
2023/10/01 04:28:44;;;;;;;21.47;9.97;;;;;;;13.31;61.63;100650.13;126569;1086;102070;-75
2023/10/01 04:31:16;;;;;;;20.40;9.73;;;;;;;13.33;61.34;100644.90;127059;1086;104145;-75
2023/10/01 04:33:48;;;;;;;20.33;9.57;;;;;;;13.33;61.44;100651.08;126830;1085;101806;-76
2023/10/01 04:36:19;;;;;;;24.57;10.30;;;;;;;13.36;61.40;100650.28;126958;1086;104179;-77
2023/10/01 04:38:51;;;;;;;21.47;10.17;;;;;;;13.41;61.93;100659.20;126874;1086;102267;-76
2023/10/01 04:41:22;;;;;;;20.53;10.30;;;;;;;13.47;62.10;100667.27;126891;1086;104339;-76
2023/10/01 04:43:55;;;;;;;21.07;10.20;;;;;;;13.51;62.22;100666.52;126984;1086;102695;-76
2023/10/01 04:46:25;;;;;;;;;;;;;;;13.57;61.82;100666.67;126978;1086;104021;-76
2023/10/01 04:48:54;;;;;;;23.33;10.07;;;;;;;13.62;61.70;100661.52;126821;1086;102009;-76
2023/10/01 04:51:24;;;;;;;22.50;10.20;;;;;;;13.69;61.72;100667.83;126942;1086;101851;-76
2023/10/01 04:54:00;;;;;;;23.73;10.30;;;;;;;13.73;61.69;100665.31;126872;1086;101916;-76
2023/10/01 04:56:29;;;;;;;22.23;10.13;;;;;;;13.79;61.53;100659.28;126856;1086;104210;-76
2023/10/01 04:58:58;;;;;;;21.90;10.30;;;;;;;13.83;61.71;100669.95;127069;1086;104229;-76
2023/10/01 05:01:28;;;;;;;24.30;10.50;;;;;;;13.89;61.55;100663.95;126664;1086;104303;-77
2023/10/01 05:03:57;;;;;;;20.40;10.03;;;;;;;13.93;61.76;100664.91;126931;1086;102597;-75
2023/10/01 05:06:29;;;;;;;21.73;10.63;;;;;;;13.97;62.07;100667.66;126707;1086;104190;-74
2023/10/01 05:08:58;;;;;;;23.20;10.67;;;;;;;14.04;61.99;100663.44;126730;1086;101989;-75
2023/10/01 05:11:31;;;;;;;20.43;9.93;;;;;;;14.11;62.35;100677.66;126831;1086;104181;-74
2023/10/01 05:14:04;;;;;;;24.25;10.48;;;;;;;14.16;62.30;100679.57;126769;1086;104181;-74
2023/10/01 05:16:38;;;;;;;22.80;10.13;;;;;;;14.24;61.80;100686.76;126905;1086;104191;-76
2023/10/01 05:19:13;;;;;;;24.23;10.63;;;;;;;14.33;62.66;100686.98;126737;1086;104255;-75
2023/10/01 05:21:47;;;;;;;23.50;11.00;;;;;;;14.40;62.43;100696.84;126868;1086;104210;-75
2023/10/01 05:24:31;;;;;;;24.35;10.43;;;;;;;14.48;62.96;100691.73;126834;1086;104168;-76
2023/10/01 05:27:00;;;;;;;24.07;11.73;;;;;;;14.59;62.86;100689.34;126996;1084;101707;-76
2023/10/01 05:29:29;;;;;;;28.35;11.00;;;;;;;14.67;63.37;100693.95;126881;1086;101816;-75
2023/10/01 05:31:59;;;;;;;22.47;10.60;;;;;;;14.74;62.92;100695.88;126938;1086;101828;-76
2023/10/01 05:34:28;;;;;;;22.63;11.03;;;;;;;14.82;62.63;100693.40;126870;1086;104398;-76
2023/10/01 05:37:08;;;;;;;25.87;11.50;;;;;;;14.90;62.62;100689.16;126906;1086;101813;-76
2023/10/01 05:42:21;;;;;;;22.98;11.28;;;;;;;15.10;62.72;100694.86;127046;1085;102091;-76
2023/10/01 05:44:50;;;;;;;23.10;11.43;;;;;;;15.20;62.73;100695.92;126942;1086;101819;-76
2023/10/01 05:47:20;;;;;;;23.93;12.17;;;;;;;15.29;63.91;100695.23;126939;1086;104162;-75
2023/10/01 05:49:50;;;;;;;29.77;12.00;;;;;;;15.37;63.97;100693.61;126803;1086;104155;-76
2023/10/01 05:52:22;;;;;;;24.25;11.60;;;;;;;15.44;63.94;100692.88;126788;1086;102168;-75
2023/10/01 05:54:53;;;;;;;26.20;12.10;;;;;;;15.55;63.26;100702.75;126879;1085;101819;-76
2023/10/01 05:57:22;;;;;;;26.67;12.53;;;;;;;15.63;63.67;100695.88;126935;1086;104182;-75
2023/10/01 05:59:56;;;;;;;25.43;12.10;;;;;;;15.71;64.23;100696.89;127027;1086;104175;-75
2023/10/01 06:02:41;;;;;;;29.97;12.80;;;;;;;15.81;63.30;100696.20;126746;1086;102009;-76
2023/10/01 06:05:25;;;;;;;26.17;12.83;;;;;;;15.92;64.44;100698.16;126738;1086;102031;-76
2023/10/01 06:07:55;;;;;;;26.87;12.87;;;;;;;16.02;63.81;100707.13;126644;1085;104155;-76
2023/10/01 06:10:26;;;;;;;27.03;13.33;;;;;;;16.10;63.78;100716.99;126671;1085;102005;-76
2023/10/01 06:12:56;;;;;;;23.77;12.60;;;;;;;16.18;63.85;100707.41;126802;1086;101977;-77
2023/10/01 06:15:29;;;;;;;26.77;13.00;;;;;;;16.25;63.63;100705.77;126807;1086;102319;-76
2023/10/01 06:18:00;;;;;;;23.77;12.77;;;;;;;16.34;63.96;100711.18;126731;1086;104158;-76
2023/10/01 06:20:30;;;;;;;30.67;14.77;;;;;;;16.41;64.51;100714.84;126832;1086;101835;-76
2023/10/01 06:22:59;;;;;;;25.30;12.77;;;;;;;16.49;64.13;100725.55;126784;1086;102309;-77
2023/10/01 06:25:40;;;;;;;28.20;13.33;;;;;;;16.58;64.04;100723.04;126771;1086;102111;-76
2023/10/01 06:28:11;;;;;;;28.07;13.93;;;;;;;16.66;63.99;100716.08;126862;1086;104210;-76
2023/10/01 06:30:46;;;;;;;26.83;13.67;;;;;;;16.75;64.75;100725.02;126862;1086;101893;-77
2023/10/01 06:33:25;;;;;;;25.37;14.23;;;;;;;16.83;64.00;100729.57;126818;1086;102059;-75
2023/10/01 06:39:01;;;;;;;27.53;12.80;;;;;;;17.07;64.27;100722.84;124772;1102;104224;-76
2023/10/01 06:41:33;;;;;;;23.93;13.13;;;;;;;17.16;64.96;100722.95;124761;1102;104187;-77
2023/10/01 06:44:05;;;;;;;31.87;13.93;;;;;;;17.29;63.92;100728.41;124677;1102;102084;-75
2023/10/01 06:46:37;;;;;;;26.40;13.83;;;;;;;17.43;64.28;100724.14;124533;1102;104178;-76
2023/10/01 06:49:09;;;;;;;26.97;13.50;;;;;;;17.59;64.18;100722.54;124518;1102;104345;-76
2023/10/01 06:51:43;;;;;;;28.83;14.07;;;;;;;17.75;64.00;100734.23;124606;1102;104217;-76
2023/10/01 06:54:14;;;;;;;;;;;;;;;17.91;63.67;100730.86;124668;1102;102035;-77
2023/10/01 06:56:47;;;;;;;25.33;13.90;;;;;;;18.07;63.68;100728.34;124697;1102;104179;-77
2023/10/01 06:59:27;;;;;;;30.50;14.27;;;;;;;18.25;63.44;100733.81;124659;1102;102219;-77
2023/10/01 07:01:59;;;;;;;24.53;13.23;;;;;;;18.44;63.60;100726.86;124524;1102;104057;-75
2023/10/01 07:04:32;;;;;;;25.40;13.53;;;;;;;18.63;62.83;100738.49;124651;1102;101906;-75
2023/10/01 07:07:21;;;;;;;25.93;13.83;;;;;;;18.80;62.83;100738.60;124618;1102;101929;-75
2023/10/01 07:09:56;;;;;;;23.73;13.10;;;;;;;18.98;62.18;100735.20;124689;1102;104217;-76
2023/10/01 07:12:27;;;;;;;23.57;12.67;;;;;;;19.16;62.30;100746.80;124813;1102;102071;-76
2023/10/01 07:14:59;;;;;;;26.33;13.53;;;;;;;19.30;61.49;100741.53;124563;1101;104076;-75
2023/10/01 07:17:33;;;;;;;27.30;12.93;;;;;;;19.42;61.55;100744.23;124705;1102;101916;-75
2023/10/01 07:20:18;;;;;;;27.43;12.80;;;;;;;19.52;61.15;100747.81;124531;1101;105449;-75
2023/10/01 07:22:49;;;;;;;25.25;12.45;;;;;;;19.67;61.86;100752.30;124469;1102;104264;-76
2023/10/01 07:25:37;;;;;;;24.87;12.83;;;;;;;19.80;60.96;100755.90;124615;1102;104230;-76
2023/10/01 07:28:12;;;;;;;24.87;12.80;;;;;;;19.93;60.58;100752.38;124415;1102;104268;-75
2023/10/01 07:30:51;;;;;;;26.37;12.73;;;;;;;20.04;60.32;100747.95;124393;1105;104094;-76
2023/10/01 07:33:23;;;;;;;25.40;12.87;;;;;;;20.15;61.21;100753.28;124327;1105;104223;-75
2023/10/01 07:36:00;;;;;;;23.53;12.27;;;;;;;20.21;60.58;100753.28;124565;1105;104185;-76
2023/10/01 07:38:46;;;;;;;21.45;11.15;;;;;;;20.25;58.97;100752.37;124423;1105;101925;-77
2023/10/01 07:41:18;;;;;;;25.20;12.43;;;;;;;20.34;60.06;100756.83;124241;1102;108156;-76
2023/10/01 07:43:50;;;;;;;20.13;11.43;;;;;;;20.42;59.01;100764.81;124128;1102;102038;-75
2023/10/01 07:46:22;;;;;;;22.93;12.20;;;;;;;20.48;59.30;100755.03;124422;1102;101938;-76
2023/10/01 07:48:53;;;;;;;23.60;11.33;;;;;;;20.56;58.76;100751.48;124451;1102;101916;-77
2023/10/01 07:51:26;;;;;;;21.97;11.80;;;;;;;20.62;59.46;100763.02;124350;1102;102032;-77
2023/10/01 07:53:59;;;;;;;21.63;11.93;;;;;;;20.72;59.63;100765.70;124321;1105;104070;-76
2023/10/01 07:56:32;;;;;;;23.90;11.95;;;;;;;20.72;58.35;100750.58;124214;1105;104186;-76
2023/10/01 07:59:33;;;;;;;22.10;11.63;;;;;;;20.75;58.64;100742.57;124304;1105;104175;-75
2023/10/01 08:02:13;;;;;;;22.73;11.50;;;;;;;20.79;59.01;100744.35;124146;1102;104175;-75
2023/10/01 08:04:57;;;;;;;26.97;12.67;;;;;;;20.88;58.32;100740.78;124149;1102;104341;-76
2023/10/01 08:07:39;;;;;;;24.10;10.83;;;;;;;20.91;57.96;100742.53;124144;1102;104217;-76
2023/10/01 08:10:18;;;;;;;22.87;11.03;;;;;;;20.93;57.99;100743.44;124346;1102;101865;-76
2023/10/01 08:13:04;;;;;;;23.40;12.07;;;;;;;21.03;57.70;100750.50;124487;1105;104255;-76
2023/10/01 08:15:39;;;;;;;20.90;11.70;;;;;;;21.14;58.16;100750.46;124385;1105;102045;-76
2023/10/01 08:21:00;;;;;;;24.70;11.97;;;;;;;21.27;58.19;100736.19;124268;1102;104421;-76
2023/10/01 08:23:33;;;;;;;22.15;12.40;;;;;;;21.34;57.87;100739.70;124266;1102;102184;-76
2023/10/01 08:28:57;;;;;;;21.77;12.10;;;;;;;21.44;58.37;100740.53;124441;1105;104304;-77
2023/10/01 08:34:28;;;;;;;23.53;12.27;;;;;;;21.62;57.61;100742.27;124013;1105;102001;-73
2023/10/01 08:37:06;;;;;;;22.97;12.07;;;;;;;21.71;58.31;100748.42;124334;1105;104182;-73
2023/10/01 08:39:47;;;;;;;23.37;11.60;;;;;;;21.79;58.31;100744.83;124330;1105;102137;-75
2023/10/01 08:42:18;;;;;;;23.57;12.43;;;;;;;21.85;57.87;100740.33;124410;1105;104169;-75
2023/10/01 08:44:51;;;;;;;24.47;12.50;;;;;;;21.90;57.51;100748.30;124363;1102;101970;-76
2023/10/01 08:47:35;;;;;;;23.70;12.65;;;;;;;21.96;57.99;100745.59;124282;1102;104233;-76
2023/10/01 08:50:29;;;;;;;25.08;12.98;;;;;;;22.00;57.68;100744.69;124219;1102;104201;-74
2023/10/01 08:53:09;;;;;;;25.10;13.27;;;;;;;22.06;58.34;100749.98;124321;1102;104188;-75
2023/10/01 08:56:04;;;;;;;22.73;12.23;;;;;;;22.06;58.02;100751.75;124400;1102;104172;-77
2023/10/01 08:58:48;;;;;;;22.73;12.37;;;;;;;22.12;57.83;100748.15;124386;1102;104313;-76
2023/10/01 09:01:21;;;;;;;24.35;13.65;;;;;;;22.17;57.97;100747.19;124329;1102;104303;-76
2023/10/01 09:03:55;;;;;;;23.03;12.97;;;;;;;22.23;58.02;100735.58;124427;1102;104133;-76
2023/10/01 09:06:58;;;;;;;22.17;11.70;;;;;;;22.28;57.93;100741.76;124248;1102;104223;-76
2023/10/01 09:09:51;;;;;;;27.75;12.40;;;;;;;22.36;57.29;100744.40;124228;1102;104242;-77
2023/10/01 09:12:22;;;;;;;23.57;12.63;;;;;;;22.42;57.53;100741.67;124401;1101;101979;-78
2023/10/01 09:14:53;;;;;;;24.87;12.67;;;;;;;22.46;57.27;100743.42;124436;1102;104176;-78
2023/10/01 09:17:40;;;;;;;23.67;12.60;;;;;;;22.48;57.09;100752.31;124456;1102;102012;-77
2023/10/01 09:20:17;;;;;;;21.87;12.27;;;;;;;22.52;57.02;100751.39;124374;1102;104178;-77
2023/10/01 09:23:00;;;;;;;22.60;11.67;;;;;;;22.59;56.97;100744.18;124377;1102;102188;-74
2023/10/01 09:25:34;;;;;;;20.27;11.33;;;;;;;22.68;56.87;100744.09;124274;1102;102660;-76
2023/10/01 09:28:22;;;;;;;22.67;11.70;;;;;;;22.72;56.48;100744.94;124449;1101;104188;-75
2023/10/01 09:31:02;;;;;;;23.30;10.90;;;;;;;22.83;56.07;100758.20;124277;1102;104092;-76
2023/10/01 09:33:34;;;;;;;23.63;10.60;;;;;;;22.83;56.45;100744.82;124405;1102;104185;-77
2023/10/01 09:36:07;;;;;;;22.25;11.20;;;;;;;22.86;56.07;100759.08;124377;1102;104191;-76
2023/10/01 09:38:57;;;;;;;20.30;10.55;;;;;;;22.85;55.94;100761.77;124406;1102;104205;-77
2023/10/01 09:41:31;;;;;;;22.60;11.07;;;;;;;22.81;55.78;100755.54;124281;1102;101868;-77
2023/10/01 09:44:05;;;;;;;21.35;10.30;;;;;;;22.85;55.20;100751.94;124417;1102;104239;-78
2023/10/01 09:46:39;;;;;;;22.63;10.20;;;;;;;22.87;55.36;100750.13;124518;1102;104169;-75
2023/10/01 09:49:25;;;;;;;23.50;9.87;;;;;;;22.88;55.61;100746.55;124376;1102;104229;-75
2023/10/01 09:52:03;;;;;;;24.17;10.97;;;;;;;22.96;55.32;100755.37;124318;1102;102031;-75
2023/10/01 09:54:41;;;;;;;21.30;11.63;;;;;;;22.98;55.58;100756.27;124062;1102;107021;-74
2023/10/01 09:57:13;;;;;;;21.00;10.80;;;;;;;23.00;55.58;100749.98;124363;1102;104214;-75
2023/10/01 09:59:49;;;;;;;23.60;10.67;;;;;;;23.02;54.74;100762.45;124450;1102;104312;-77
2023/10/01 10:02:27;;;;;;;21.20;10.57;;;;;;;23.05;55.14;100753.52;125779;1101;101845;-78
2023/10/01 10:04:58;;;;;;;21.97;11.67;;;;;;;23.05;55.45;100737.46;124418;1102;117847;-77
2023/10/01 10:07:32;;;;;;;25.20;14.20;;;;;;;23.06;55.30;100750.82;124498;1102;104278;-76
2023/10/01 10:10:06;;;;;;;30.20;14.20;;;;;;;23.07;55.84;100752.57;124518;1102;104220;-75
2023/10/01 10:12:38;;;;;;;22.83;11.27;;;;;;;23.21;55.29;100736.38;124486;1102;101833;-76
2023/10/01 10:15:16;;;;;;;21.23;12.03;;;;;;;23.32;55.25;100734.44;124546;1102;102100;-78
2023/10/01 10:18:15;;;;;;;25.07;13.63;;;;;;;23.36;54.61;100753.14;124489;1102;103010;-77
2023/10/01 10:21:03;;;;;;;22.40;11.93;;;;;;;23.35;54.77;100767.45;124469;1102;104188;-77
2023/10/01 10:23:55;;;;;;;22.57;12.17;;;;;;;23.33;54.76;100765.67;124586;1102;101855;-77
2023/10/01 10:26:56;;;;;;;26.07;12.73;;;;;;;23.35;54.88;100740.69;124510;1102;104315;-75
2023/10/01 10:30:06;;;;;;;25.53;11.80;;;;;;;23.36;54.88;100753.14;124372;1102;101894;-75
2023/10/01 10:32:44;;;;;;;21.53;10.33;;;;;;;23.32;54.41;100753.18;124551;1102;104169;-76
2023/10/01 10:35:24;;;;;;;20.90;11.00;;;;;;;23.28;54.53;100753.23;124385;1102;104283;-76
2023/10/01 10:37:56;;;;;;;21.63;11.73;;;;;;;23.18;54.44;100763.19;124520;1102;104197;-76
2023/10/01 10:40:28;;;;;;;22.37;11.87;;;;;;;23.09;54.79;100755.27;124350;1102;104261;-75
2023/10/01 10:43:19;;;;;;;24.60;14.00;;;;;;;23.09;54.86;100756.17;124390;1102;101836;-77
2023/10/01 10:46:06;;;;;;;31.60;13.90;;;;;;;23.14;54.76;100761.47;124439;1102;118365;-78
2023/10/01 10:49:03;;;;;;;23.80;11.43;;;;;;;22.98;54.32;100748.23;124452;1102;101974;-76
2023/10/01 10:51:48;;;;;;;26.97;10.70;;;;;;;22.98;54.74;100748.23;124431;1102;104165;-76
2023/10/01 10:54:37;;;;;;;22.17;11.60;;;;;;;23.10;54.63;100763.27;124282;1102;102015;-75
2023/10/01 10:57:10;;;;;;;23.57;13.47;;;;;;;23.14;54.24;100762.34;124498;1102;104277;-75
2023/10/01 10:59:52;;;;;;;30.50;14.40;;;;;;;23.12;54.09;100739.17;124368;1102;104242;-76
2023/10/01 11:02:23;;;;;;;26.27;14.27;;;;;;;23.19;53.84;100739.97;124465;1101;101951;-76
2023/10/01 11:04:55;;;;;;;22.37;11.93;;;;;;;23.24;53.53;100741.70;124499;1102;104195;-74
2023/10/01 11:07:35;;;;;;;21.63;11.47;;;;;;;23.20;53.80;100734.59;124376;1102;104076;-76
2023/10/01 11:10:08;;;;;;;22.87;12.40;;;;;;;23.19;53.79;100751.58;124393;1102;104166;-77
2023/10/01 11:12:54;;;;;;;24.95;11.63;;;;;;;23.16;53.21;100743.59;125695;1102;102016;-77
2023/10/01 11:15:39;;;;;;;24.70;9.73;;;;;;;23.19;53.16;100730.17;124526;1102;102313;-77
2023/10/01 11:18:11;;;;;;;20.23;9.20;;;;;;;23.21;53.23;100732.83;124601;1102;104201;-78
2023/10/01 11:20:46;;;;;;;22.77;9.57;;;;;;;23.09;53.13;100733.85;124517;1102;104185;-77
2023/10/01 11:23:20;;;;;;;19.53;7.60;;;;;;;23.00;52.54;100731.25;124609;1102;104172;-76
2023/10/01 11:25:51;;;;;;;16.53;6.57;;;;;;;23.01;52.88;100727.69;124432;1102;104165;-77
2023/10/01 11:28:29;;;;;;;17.90;6.90;;;;;;;22.94;52.29;100721.53;124475;1102;104364;-76
2023/10/01 11:31:17;;;;;;;16.30;6.63;;;;;;;22.82;51.99;100730.57;124497;1102;104750;-78
2023/10/01 11:34:03;;;;;;;15.90;6.40;;;;;;;22.67;51.77;100725.39;124588;1102;104172;-78
2023/10/01 11:36:41;;;;;;;17.70;6.20;;;;;;;22.61;51.72;100727.23;124632;1102;104188;-78
2023/10/01 11:39:16;;;;;;;19.67;8.60;;;;;;;22.58;51.70;100729.94;124674;1102;104303;-78
2023/10/01 11:41:47;;;;;;;18.13;6.60;;;;;;;22.59;51.54;100750.44;124401;1102;104208;-76
2023/10/01 11:44:35;;;;;;;19.50;6.47;;;;;;;22.59;51.09;100729.05;124431;1102;104185;-77
2023/10/01 11:47:10;;;;;;;17.67;5.77;;;;;;;22.52;50.77;100745.16;124753;1102;110321;-78
2023/10/01 11:49:42;;;;;;;17.23;5.97;;;;;;;22.48;50.91;100736.27;124803;1102;101906;-78
2023/10/01 11:52:21;;;;;;;15.10;5.53;;;;;;;22.48;50.32;100736.27;125892;1101;104185;-79
2023/10/01 11:54:53;;;;;;;15.37;5.07;;;;;;;22.48;50.68;100730.92;124656;1102;104332;-78
2023/10/01 11:57:31;;;;;;;13.63;4.77;;;;;;;22.53;50.77;100722.85;124647;1101;104102;-77
2023/10/01 12:00:05;;;;;;;14.63;5.20;;;;;;;22.56;50.89;100717.47;124693;1102;104182;-77